CDT,Max TemperatureF,Mean TemperatureF,Min TemperatureF,Max Dew PointF,MeanDew PointF,Min DewpointF,Max Humidity, Mean Humidity, Min Humidity, Max Sea Level PressureIn, Mean Sea Level PressureIn, Min Sea Level PressureIn, Max VisibilityMiles, Mean VisibilityMiles, Min VisibilityMiles, Max Wind SpeedMPH, Mean Wind SpeedMPH, Max Gust SpeedMPH,PrecipitationIn, CloudCover, Events, WindDirDegrees
2013-3-1,50,38,26,28,22,18,87,59,28,30.35,30.26,30.21,10,10,10,28,11,39,0.00,0,,334
2013-3-2,62,46,30,32,28,25,93,59,26,30.35,30.26,30.14,10,10,10,20,9,24,0.00,1,,257
2013-3-3,68,52,35,30,26,19,75,44,20,30.12,29.82,29.62,10,10,10,26,14,31,0.00,0,,234
2013-3-4,62,47,32,36,30,23,87,50,30,30.21,29.79,29.66,10,10,10,34,17,45,0.00,1,,347
2013-3-5,44,32,21,30,17,12,93,57,27,30.42,30.33,30.21,10,10,3,23,11,34,0.00,0,Snow,313
2013-3-6,60,43,26,21,19,14,74,42,22,30.28,30.13,29.98,10,10,10,32,16,39,0.00,0,,178
2013-3-7,79,58,37,30,23,19,49,32,13,30.00,29.95,29.89,10,10,10,21,17,26,0.00,0,,215
2013-3-8,75,60,46,47,34,26,82,43,17,29.95,29.85,29.73,10,10,10,29,15,40,0.00,0,Rain,182
2013-3-9,58,46,33,47,30,8,93,59,14,29.84,29.71,29.60,10,10,10,43,18,55,0.00,2,Rain-Snow,239
2013-3-10,39,30,22,28,16,11,81,53,31,30.11,30.02,29.85,10,10,7,41,30,55,0.00,1,,336
2013-3-11,64,42,21,20,16,12,71,41,14,30.11,29.99,29.88,10,10,10,16,9,20,0.00,0,,245
2013-3-12,51,40,30,31,26,20,91,61,37,30.34,30.21,29.95,10,10,7,24,12,32,0.00,0,,27
2013-3-13,68,47,27,31,26,23,84,49,19,30.34,30.28,30.21,10,10,10,29,10,33,0.00,0,,200
2013-3-14,74,55,36,32,27,23,64,37,17,30.25,30.20,30.16,10,10,10,16,9,21,0.00,0,,103
2013-3-15,81,60,39,30,25,17,63,35,9,30.16,29.99,29.82,10,10,10,17,9,21,0.00,0,,235
2013-3-16,57,48,40,36,28,19,78,46,25,29.94,29.86,29.77,10,10,10,26,14,33,0.00,0,,15
2013-3-17,67,48,28,43,30,18,84,56,23,29.92,29.75,29.56,10,10,2,41,9,56,0.00,0,Rain,201
2013-3-18,56,43,30,32,21,12,79,44,20,30.04,29.92,29.67,10,10,10,23,12,32,0.00,0,,42
2013-3-19,53,43,33,29,24,15,73,49,26,30.26,30.06,29.93,10,10,10,22,10,28,0.00,0,,83
2013-3-20,61,42,23,26,17,10,61,37,18,30.32,30.15,29.83,10,10,10,29,10,37,0.00,0,,217
2013-3-21,77,58,40,33,29,14,72,41,9,29.82,29.61,29.44,10,10,2,26,14,72,0.00,0,,277
2013-3-22,55,40,26,33,29,25,95,67,36,29.91,29.81,29.72,10,9,4,23,12,29,0.00,2,,59
2013-3-23,48,34,20,34,29,16,96,80,51,30.11,29.79,29.62,10,8,0,38,16,48,0.00,3,Snow,45
2013-3-24,37,26,15,19,14,9,83,65,38,30.20,30.13,30.07,10,10,10,22,14,28,0.00,0,,4
2013-3-25,42,30,18,22,16,12,83,58,32,30.34,30.28,30.21,10,10,10,12,6,18,0.00,0,,349
2013-3-26,64,40,16,16,13,10,78,40,14,30.32,30.17,30.00,10,10,7,30,13,37,0.00,1,,184
2013-3-27,67,52,39,25,21,14,44,29,20,30.08,30.01,29.93,10,10,10,23,16,28,0.00,0,,7
2013-3-28,70,50,31,37,31,23,78,51,27,30.12,30.07,30.02,10,10,7,15,8,,0.00,0,,24
2013-3-29,73,55,37,48,42,34,93,68,32,30.12,30.06,30.01,10,10,5,14,7,,0.00,1,,44
2013-3-30,75,57,39,44,36,30,92,50,20,30.07,30.01,29.94,10,10,7,16,8,18,0.00,0,,50
2013-3-31,66,54,43,44,35,26,94,57,23,30.14,30.07,29.98,10,10,4,26,12,34,0.03,1,Rain,52